createdAt,value
2022-09-22T00:00:15.027Z,13.00
2022-09-22T00:03:06.093Z,12.81
2022-09-22T00:05:35.094Z,12.99
2022-09-22T00:08:04.358Z,12.90
2022-09-22T00:10:33.294Z,12.68
2022-09-22T00:13:02.194Z,12.77
2022-09-22T00:15:31.359Z,12.75
2022-09-22T00:18:00.357Z,12.90
2022-09-22T00:20:30.957Z,12.99
2022-09-22T00:23:00.430Z,12.93
2022-09-22T00:25:29.489Z,12.73
2022-09-22T00:27:58.414Z,13.03
2022-09-22T00:30:27.545Z,12.87
2022-09-22T00:32:56.380Z,12.99
2022-09-22T00:35:25.487Z,13.00
2022-09-22T00:37:56.031Z,13.22
2022-09-22T00:40:25.070Z,13.23
2022-09-22T00:42:53.970Z,13.11
2022-09-22T00:45:23.107Z,13.26
2022-09-22T00:47:52.067Z,13.47
2022-09-22T00:50:23.775Z,13.66
2022-09-22T00:52:59.711Z,13.64
2022-09-22T00:55:31.021Z,13.76
2022-09-22T00:58:04.003Z,13.67
2022-09-22T01:00:33.125Z,13.61
2022-09-22T01:03:05.842Z,13.56
2022-09-22T01:05:37.035Z,13.55
2022-09-22T01:08:08.169Z,13.36
2022-09-22T01:10:37.374Z,13.20
2022-09-22T01:13:19.080Z,13.10
2022-09-22T01:16:02.012Z,13.27
2022-09-22T01:18:43.090Z,13.35
2022-09-22T01:21:33.790Z,13.33
2022-09-22T01:24:45.233Z,13.46
2022-09-22T01:28:00.035Z,13.45
2022-09-22T01:30:37.162Z,13.62
2022-09-22T01:33:29.325Z,13.60
2022-09-22T01:36:11.875Z,13.91
2022-09-22T01:38:49.121Z,13.84
2022-09-22T01:41:25.660Z,13.88
2022-09-22T01:44:01.273Z,13.95
2022-09-22T01:46:36.671Z,13.90
2022-09-22T01:49:07.759Z,13.64
2022-09-22T01:51:40.920Z,13.70
2022-09-22T01:54:16.429Z,13.98
2022-09-22T01:56:50.611Z,13.94
2022-09-22T01:59:23.779Z,13.77
2022-09-22T02:01:58.264Z,13.91
2022-09-22T02:04:32.892Z,13.69
2022-09-22T02:07:06.507Z,13.80
2022-09-22T02:09:37.112Z,13.88
2022-09-22T02:12:06.864Z,13.99
2022-09-22T02:14:36.507Z,14.10
2022-09-22T02:17:07.094Z,14.07
2022-09-22T02:19:39.962Z,14.13
2022-09-22T02:22:11.628Z,14.05
2022-09-22T02:24:42.859Z,13.98
2022-09-22T02:27:20.586Z,14.16
2022-09-22T02:29:55.466Z,14.19
2022-09-22T02:33:50.034Z,14.24
2022-09-22T02:36:35.757Z,14.10
2022-09-22T02:39:10.828Z,13.77
2022-09-22T02:41:57.672Z,13.68
2022-09-22T02:44:33.026Z,13.56
2022-09-22T02:47:09.331Z,13.66
2022-09-22T02:49:39.094Z,13.37
2022-09-22T02:52:14.046Z,13.35
2022-09-22T02:54:43.505Z,13.35
2022-09-22T02:57:12.613Z,13.42
2022-09-22T02:59:41.593Z,13.40
2022-09-22T03:02:10.723Z,13.21
2022-09-22T03:04:39.728Z,13.35
2022-09-22T03:07:08.887Z,13.47
2022-09-22T03:09:39.343Z,13.41
2022-09-22T03:12:08.643Z,13.35
2022-09-22T03:14:37.573Z,13.52
2022-09-22T03:17:06.840Z,13.44
2022-09-22T03:19:36.100Z,13.55
2022-09-22T03:22:05.493Z,13.63
2022-09-22T03:24:34.574Z,13.65
2022-09-22T03:27:04.939Z,13.63
2022-09-22T03:29:33.890Z,13.66
2022-09-22T03:32:03.694Z,13.72
2022-09-22T03:34:32.502Z,13.71
2022-09-22T03:37:01.516Z,13.66
2022-09-22T03:39:30.692Z,13.55
2022-09-22T03:41:59.698Z,13.68
2022-09-22T03:44:30.083Z,13.60
2022-09-22T03:46:59.496Z,13.37
2022-09-22T03:49:28.789Z,13.51
2022-09-22T03:51:57.607Z,13.40
2022-09-22T03:54:26.846Z,13.35
2022-09-22T03:56:55.816Z,13.53
2022-09-22T03:59:24.879Z,13.47
2022-09-22T04:01:58.269Z,13.44
2022-09-22T04:04:27.446Z,13.61
2022-09-22T04:06:56.660Z,13.80
2022-09-22T04:09:25.615Z,13.68
2022-09-22T04:11:54.586Z,13.74
2022-09-22T04:14:23.783Z,13.81
2022-09-22T04:16:54.478Z,13.97
2022-09-22T04:19:23.994Z,13.91
2022-09-22T04:21:57.018Z,13.91
2022-09-22T04:24:26.672Z,13.77
2022-09-22T04:27:19.140Z,13.77
2022-09-22T04:29:44.641Z,13.83
2022-09-22T04:32:15.252Z,13.80
2022-09-22T04:34:44.312Z,13.53
2022-09-22T04:37:13.734Z,13.56
2022-09-22T04:39:42.961Z,13.67
2022-09-22T04:42:11.956Z,13.64
2022-09-22T04:44:41.260Z,13.70
2022-09-22T04:47:10.249Z,13.76
2022-09-22T04:49:40.673Z,13.77
2022-09-22T04:52:09.722Z,13.71
2022-09-22T04:54:38.839Z,13.77
2022-09-22T04:57:07.902Z,13.66
2022-09-22T04:59:37.036Z,13.81
2022-09-22T05:02:06.144Z,13.91
2022-09-22T05:04:35.046Z,13.66
2022-09-22T05:07:05.670Z,13.82
2022-09-22T05:09:34.704Z,13.91
2022-09-22T05:12:03.910Z,13.96
2022-09-22T05:14:34.620Z,14.04
2022-09-22T05:17:04.084Z,14.09
2022-09-22T05:19:33.292Z,14.19
2022-09-22T05:22:02.286Z,14.15
2022-09-22T05:24:32.621Z,14.18
2022-09-22T05:27:01.661Z,14.14
2022-09-22T05:29:30.773Z,13.97
2022-09-22T05:31:59.806Z,13.89
2022-09-22T05:34:28.729Z,13.80
2022-09-22T05:36:57.889Z,13.93
2022-09-22T05:39:26.716Z,13.93
2022-09-22T05:41:57.251Z,14.07
2022-09-22T05:44:26.602Z,14.08
2022-09-22T05:46:55.896Z,14.21
2022-09-22T05:49:25.230Z,13.82
2022-09-22T05:51:57.360Z,14.06
2022-09-22T05:54:26.501Z,14.14
2022-09-22T05:56:57.489Z,14.11
2022-09-22T05:59:26.364Z,14.25
2022-09-22T06:01:59.541Z,14.41
2022-09-22T06:04:28.750Z,14.36
2022-09-22T06:06:58.122Z,14.41
2022-09-22T06:09:27.103Z,14.65
2022-09-22T06:11:57.667Z,14.49
2022-09-22T06:14:26.943Z,14.84
2022-09-22T06:16:56.010Z,14.95
2022-09-22T06:19:25.200Z,14.99
2022-09-22T06:21:54.426Z,14.82
2022-09-22T06:24:24.206Z,15.08
2022-09-22T06:26:53.408Z,15.15
2022-09-22T06:29:23.748Z,15.41
2022-09-22T06:31:53.191Z,15.70
2022-09-22T06:34:23.909Z,15.65
2022-09-22T06:36:54.770Z,15.60
2022-09-22T06:39:42.519Z,15.74
2022-09-22T06:42:29.899Z,15.76
2022-09-22T06:45:00.651Z,15.90
2022-09-22T06:47:31.796Z,15.79
2022-09-22T06:50:05.671Z,15.69
2022-09-22T06:52:37.499Z,15.96
2022-09-22T06:55:10.704Z,16.31
2022-09-22T06:57:40.689Z,16.36
2022-09-22T07:00:13.724Z,16.52
2022-09-22T07:02:42.912Z,16.71
2022-09-22T07:05:12.496Z,16.66
2022-09-22T07:07:41.746Z,16.60
2022-09-22T07:10:11.293Z,16.93
2022-09-22T07:12:41.017Z,16.84
2022-09-22T07:15:12.472Z,16.80
2022-09-22T07:17:41.757Z,16.93
2022-09-22T07:20:10.988Z,17.06
2022-09-22T07:22:40.669Z,16.62
2022-09-22T07:25:10.590Z,16.75
2022-09-22T07:27:39.711Z,16.89
2022-09-22T07:30:11.775Z,17.11
2022-09-22T07:32:41.307Z,17.30
2022-09-22T07:35:10.809Z,17.10
2022-09-22T07:37:41.318Z,16.69
2022-09-22T07:40:10.992Z,17.00
2022-09-22T07:42:39.922Z,16.78
2022-09-22T07:45:13.935Z,16.91
2022-09-22T07:48:03.738Z,16.94
2022-09-22T07:50:32.643Z,17.35
2022-09-22T07:53:01.916Z,17.35
2022-09-22T07:55:30.763Z,17.30
2022-09-22T07:58:01.287Z,17.49
2022-09-22T08:00:33.719Z,17.27
2022-09-22T08:03:04.185Z,17.23
2022-09-22T08:05:33.420Z,17.77
2022-09-22T08:08:03.814Z,17.71
2022-09-22T08:10:35.974Z,17.55
2022-09-22T08:13:05.284Z,17.73
2022-09-22T08:15:36.341Z,17.92
2022-09-22T08:18:06.586Z,17.96
2022-09-22T08:20:35.791Z,17.77
2022-09-22T08:23:05.677Z,18.18
2022-09-22T08:25:34.845Z,18.25
2022-09-22T08:28:04.539Z,17.92
2022-09-22T08:30:35.533Z,17.95
2022-09-22T08:33:04.626Z,18.26
2022-09-22T08:35:34.639Z,18.50
2022-09-22T08:38:03.932Z,18.76
2022-09-22T08:40:32.993Z,18.80
2022-09-22T08:43:04.461Z,18.88
2022-09-22T08:45:39.434Z,18.84
2022-09-22T08:48:35.111Z,18.52
2022-09-22T08:51:29.321Z,18.59
2022-09-22T08:54:03.337Z,18.59
2022-09-22T08:56:38.129Z,18.52
2022-09-22T08:59:13.568Z,18.66
2022-09-22T09:02:01.252Z,18.30
2022-09-22T09:05:00.938Z,18.36
2022-09-22T09:07:43.990Z,18.43
2022-09-22T09:10:34.264Z,18.58
2022-09-22T09:13:19.805Z,18.20
2022-09-22T09:16:04.369Z,18.18
2022-09-22T09:18:38.502Z,17.99
2022-09-22T09:21:14.506Z,18.08
2022-09-22T09:26:36.889Z,17.99
2022-09-22T09:29:09.695Z,18.07
2022-09-22T09:31:43.891Z,18.19
2022-09-22T09:34:18.102Z,18.10
2022-09-22T09:36:52.871Z,18.57
2022-09-22T09:39:28.399Z,18.81
2022-09-22T09:41:58.970Z,18.57
2022-09-22T09:44:31.370Z,18.45
2022-09-22T09:47:08.398Z,18.53
2022-09-22T09:49:38.877Z,18.35
2022-09-22T09:52:12.670Z,18.20
2022-09-22T09:54:43.413Z,18.39
2022-09-22T09:57:14.575Z,18.44
2022-09-22T10:00:03.772Z,18.42
2022-09-22T10:02:51.222Z,18.72
2022-09-22T10:05:26.830Z,18.73
2022-09-22T10:07:59.945Z,18.37
2022-09-22T10:10:41.289Z,18.28
2022-09-22T10:13:30.951Z,17.73
2022-09-22T10:16:20.856Z,17.89
2022-09-22T10:19:02.937Z,17.98
2022-09-22T10:21:33.689Z,17.97
2022-09-22T10:24:22.387Z,18.21
2022-09-22T10:26:57.415Z,19.44
2022-09-22T10:29:27.381Z,22.46
2022-09-22T10:32:14.205Z,24.55
2022-09-22T10:37:29.173Z,21.83
2022-09-22T10:40:02.811Z,22.53
2022-09-22T10:42:37.049Z,21.92
2022-09-22T10:45:10.849Z,20.04
2022-09-22T10:47:52.587Z,19.27
2022-09-22T10:50:50.810Z,19.37
2022-09-22T10:53:51.439Z,19.15
2022-09-22T10:56:30.429Z,19.19
2022-09-22T10:59:27.434Z,18.95
2022-09-22T11:02:20.172Z,19.18
2022-09-22T11:05:43.096Z,19.67
2022-09-22T11:08:32.910Z,20.36
2022-09-22T11:11:30.789Z,20.88
2022-09-22T11:14:14.377Z,20.55
2022-09-22T11:17:06.475Z,20.69
2022-09-22T11:19:57.267Z,20.11
2022-09-22T11:22:48.749Z,20.12
2022-09-22T11:25:32.993Z,20.07
2022-09-22T11:28:21.263Z,19.74
2022-09-22T11:30:54.246Z,19.87
2022-09-22T11:33:58.159Z,19.72
2022-09-22T11:36:40.580Z,20.12
2022-09-22T11:39:35.039Z,19.44
2022-09-22T11:42:14.913Z,19.98
2022-09-22T11:44:55.675Z,21.07
2022-09-22T11:47:53.350Z,21.84
2022-09-22T11:50:53.995Z,22.26
2022-09-22T11:53:50.971Z,23.42
2022-09-22T11:56:40.280Z,28.03
2022-09-22T11:59:26.030Z,30.55
2022-09-22T12:01:59.312Z,29.51
2022-09-22T12:04:36.107Z,28.15
2022-09-22T12:07:11.321Z,26.76
2022-09-22T12:09:46.852Z,26.53
2022-09-22T12:12:19.770Z,28.81
2022-09-22T12:14:58.087Z,30.51
2022-09-22T12:17:36.922Z,31.56
2022-09-22T12:20:21.766Z,29.15
2022-09-22T12:23:18.132Z,31.28
2022-09-22T12:25:51.040Z,29.79
2022-09-22T12:28:24.301Z,28.95
2022-09-22T12:31:05.001Z,29.39
2022-09-22T12:33:38.180Z,34.11
2022-09-22T12:36:08.377Z,29.11
2022-09-22T12:38:40.066Z,27.13
2022-09-22T12:41:10.246Z,25.00
2022-09-22T12:43:39.415Z,24.17
2022-09-22T12:46:22.514Z,25.37
2022-09-22T12:48:53.619Z,23.97
2022-09-22T12:51:34.130Z,22.92
2022-09-22T12:54:49.080Z,21.98
2022-09-22T12:57:29.326Z,21.35
2022-09-22T13:00:17.369Z,21.18
2022-09-22T13:02:47.357Z,21.10
2022-09-22T13:05:46.414Z,20.85
2022-09-22T13:08:22.924Z,21.23
2022-09-22T13:11:06.872Z,21.21
2022-09-22T13:13:42.036Z,21.34
2022-09-22T13:16:30.084Z,22.08
2022-09-22T13:19:03.395Z,23.84
2022-09-22T13:21:34.580Z,24.27
2022-09-22T13:24:06.375Z,23.75
2022-09-22T13:26:37.727Z,22.61
2022-09-22T13:29:12.720Z,20.83
2022-09-22T13:31:44.480Z,20.41
2022-09-22T13:34:37.960Z,20.80
2022-09-22T13:37:13.705Z,20.82
2022-09-22T13:39:47.572Z,21.61
2022-09-22T13:42:23.602Z,26.17
2022-09-22T13:44:59.908Z,27.02
2022-09-22T13:47:30.067Z,24.43
2022-09-22T13:50:07.280Z,24.18
2022-09-22T13:52:44.543Z,26.04
2022-09-22T13:55:20.975Z,27.84
2022-09-22T13:57:51.959Z,25.42
2022-09-22T14:00:26.440Z,24.10
2022-09-22T14:02:59.179Z,22.81
2022-09-22T14:05:30.954Z,22.13
2022-09-22T14:08:16.141Z,21.94
2022-09-22T14:10:49.755Z,21.42
2022-09-22T14:13:58.932Z,24.45
2022-09-22T14:16:32.715Z,26.85
2022-09-22T14:19:06.161Z,25.06
2022-09-22T14:21:42.176Z,27.12
2022-09-22T14:24:18.644Z,28.93
2022-09-22T14:26:50.246Z,28.65
2022-09-22T14:29:27.050Z,29.96
2022-09-22T14:32:00.506Z,31.33
2022-09-22T14:34:32.400Z,32.87
2022-09-22T14:37:16.201Z,34.07
2022-09-22T14:39:47.376Z,33.99
2022-09-22T14:42:22.851Z,32.91
2022-09-22T14:44:53.818Z,32.42
2022-09-22T14:47:28.015Z,33.18
2022-09-22T14:50:14.573Z,31.37
2022-09-22T14:52:56.530Z,28.08
2022-09-22T14:55:34.401Z,25.75
2022-09-22T14:58:07.386Z,23.93
2022-09-22T15:00:55.485Z,23.15
2022-09-22T15:03:30.089Z,22.13
2022-09-22T15:06:09.475Z,21.51
2022-09-22T15:08:38.320Z,21.03
2022-09-22T15:11:11.595Z,20.46
2022-09-22T15:13:42.198Z,20.17
2022-09-22T15:16:40.352Z,20.35
2022-09-22T15:19:13.199Z,20.69
2022-09-22T15:21:46.489Z,20.34
2022-09-22T15:24:21.179Z,19.83
2022-09-22T15:26:52.220Z,19.90
2022-09-22T15:29:21.146Z,19.67
2022-09-22T15:31:50.063Z,19.57
2022-09-22T15:34:19.117Z,19.15
2022-09-22T15:36:50.030Z,18.85
2022-09-22T15:39:23.035Z,18.46
2022-09-22T15:41:55.332Z,18.46
2022-09-22T15:44:24.483Z,18.11
2022-09-22T15:46:54.831Z,17.76
2022-09-22T15:49:26.474Z,17.78
2022-09-22T15:51:57.059Z,17.49
2022-09-22T15:54:27.556Z,17.20
2022-09-22T15:57:00.815Z,17.01
2022-09-22T15:59:33.967Z,16.72
2022-09-22T16:02:03.319Z,16.59
2022-09-22T16:04:34.329Z,16.55
2022-09-22T16:07:05.888Z,16.29
2022-09-22T16:09:35.285Z,16.00
2022-09-22T16:12:10.805Z,15.88
2022-09-22T16:14:42.413Z,15.78
2022-09-22T16:17:11.608Z,15.60
2022-09-22T16:19:40.733Z,15.49
2022-09-22T16:22:10.019Z,15.33
2022-09-22T16:24:39.027Z,15.48
2022-09-22T16:27:09.808Z,15.40
2022-09-22T16:29:39.035Z,15.14
2022-09-22T16:32:08.310Z,15.13
2022-09-22T16:34:37.617Z,14.96
2022-09-22T16:37:07.021Z,14.81
2022-09-22T16:39:36.947Z,14.84
2022-09-22T16:42:06.508Z,14.62
2022-09-22T16:44:37.249Z,14.53
2022-09-22T16:47:06.468Z,14.16
2022-09-22T16:49:35.795Z,14.21
2022-09-22T16:52:05.390Z,14.09
2022-09-22T16:54:35.333Z,14.07
2022-09-22T16:57:04.681Z,13.90
2022-09-22T16:59:34.637Z,13.81
2022-09-22T17:02:05.545Z,13.70
2022-09-22T17:04:35.735Z,13.54
2022-09-22T17:07:06.289Z,13.46
2022-09-22T17:09:36.337Z,13.37
2022-09-22T17:12:11.153Z,13.33
2022-09-22T17:14:47.742Z,13.13
2022-09-22T17:17:18.652Z,13.21
2022-09-22T17:19:48.584Z,13.13
2022-09-22T17:22:19.230Z,12.95
2022-09-22T17:24:48.622Z,12.78
2022-09-22T17:27:18.982Z,12.82
2022-09-22T17:29:48.043Z,12.79
2022-09-22T17:32:21.035Z,12.59
2022-09-22T17:34:51.532Z,12.59
2022-09-22T17:37:21.928Z,12.62
2022-09-22T17:39:51.593Z,12.55
2022-09-22T17:42:22.620Z,12.48
2022-09-22T17:44:51.712Z,12.72
2022-09-22T17:47:39.578Z,12.62
2022-09-22T17:50:30.583Z,12.62
2022-09-22T17:53:16.440Z,12.60
2022-09-22T17:55:45.581Z,12.74
2022-09-22T17:58:14.793Z,12.68
2022-09-22T18:00:45.292Z,12.66
2022-09-22T18:03:16.240Z,12.48
2022-09-22T18:05:52.524Z,12.39
2022-09-22T18:08:22.245Z,12.36
2022-09-22T18:10:51.488Z,12.31
2022-09-22T18:13:20.652Z,12.15
2022-09-22T18:15:50.985Z,12.03
2022-09-22T18:18:21.603Z,12.05
2022-09-22T18:20:52.172Z,11.95
2022-09-22T18:23:22.444Z,12.02
2022-09-22T18:25:53.069Z,12.05
2022-09-22T18:28:23.407Z,12.01
2022-09-22T18:30:52.474Z,12.06
2022-09-22T18:33:23.580Z,11.87
2022-09-22T18:35:52.731Z,11.56
2022-09-22T18:38:22.104Z,11.62
2022-09-22T18:40:52.376Z,11.75
2022-09-22T18:43:21.527Z,11.89
2022-09-22T18:45:51.003Z,11.96
2022-09-22T18:48:20.037Z,11.77
2022-09-22T18:50:50.501Z,11.71
2022-09-22T18:53:22.640Z,11.56
2022-09-22T18:55:53.069Z,11.54
2022-09-22T18:58:23.213Z,11.48
2022-09-22T19:00:53.169Z,11.47
2022-09-22T19:03:22.229Z,11.34
2022-09-22T19:05:53.626Z,11.38
2022-09-22T19:08:23.539Z,11.22
2022-09-22T19:10:52.623Z,11.25
2022-09-22T19:13:22.052Z,11.33
2022-09-22T19:15:55.046Z,11.47
2022-09-22T19:18:27.248Z,11.42
2022-09-22T19:20:58.393Z,11.42
2022-09-22T19:23:28.524Z,11.51
2022-09-22T19:25:58.122Z,11.39
2022-09-22T19:28:28.741Z,11.53
2022-09-22T19:30:58.116Z,11.53
2022-09-22T19:33:27.524Z,11.48
2022-09-22T19:35:58.077Z,11.54
2022-09-22T19:38:27.433Z,11.50
2022-09-22T19:40:59.442Z,11.47
2022-09-22T19:43:30.186Z,11.42
2022-09-22T19:45:59.650Z,11.23
2022-09-22T19:48:28.965Z,11.32
2022-09-22T19:50:59.777Z,11.16
2022-09-22T19:53:29.338Z,11.33
2022-09-22T19:55:59.651Z,11.30
2022-09-22T19:58:28.785Z,11.24
2022-09-22T20:00:58.466Z,11.04
2022-09-22T20:03:28.018Z,11.02
2022-09-22T20:05:58.509Z,10.92
2022-09-22T20:08:27.820Z,11.03
2022-09-22T20:11:16.653Z,10.95
2022-09-22T20:14:05.310Z,10.93
2022-09-22T20:16:34.411Z,10.91
2022-09-22T20:19:03.780Z,10.93
2022-09-22T20:21:35.086Z,10.89
2022-09-22T20:24:05.198Z,10.84
2022-09-22T20:26:35.062Z,10.77
2022-09-22T20:29:04.168Z,10.81
2022-09-22T20:31:33.885Z,10.93
2022-09-22T20:34:02.992Z,10.85
2022-09-22T20:36:36.645Z,10.76
2022-09-22T20:39:06.597Z,10.65
2022-09-22T20:41:35.752Z,10.46
2022-09-22T20:44:04.872Z,10.61
2022-09-22T20:46:34.271Z,10.47
2022-09-22T20:49:05.151Z,10.50
2022-09-22T20:51:35.971Z,10.45
2022-09-22T20:54:05.677Z,10.43
2022-09-22T20:56:38.419Z,10.51
2022-09-22T20:59:11.569Z,10.39
2022-09-22T21:01:40.645Z,10.25
2022-09-22T21:04:12.925Z,10.23
2022-09-22T21:06:46.717Z,10.29
2022-09-22T21:09:33.520Z,10.21
2022-09-22T21:12:03.258Z,10.29
2022-09-22T21:14:33.888Z,10.18
2022-09-22T21:17:06.490Z,10.05
2022-09-22T21:19:36.488Z,10.10
2022-09-22T21:22:07.316Z,10.24
2022-09-22T21:24:36.386Z,10.22
2022-09-22T21:27:06.043Z,10.10
2022-09-22T21:29:35.387Z,10.15
2022-09-22T21:32:04.523Z,10.05
2022-09-22T21:34:34.331Z,10.10
2022-09-22T21:37:03.677Z,9.92
2022-09-22T21:39:34.049Z,10.09
2022-09-22T21:42:03.192Z,10.14
2022-09-22T21:44:32.527Z,10.15
2022-09-22T21:47:01.413Z,10.15
2022-09-22T21:49:30.423Z,9.98
2022-09-22T21:52:00.740Z,9.93
2022-09-22T21:54:31.182Z,9.85
2022-09-22T21:57:02.015Z,9.97
2022-09-22T21:59:31.618Z,9.97
2022-09-22T22:02:00.688Z,9.90
2022-09-22T22:04:30.157Z,9.95
2022-09-22T22:07:00.095Z,9.72
2022-09-22T22:09:29.172Z,9.60
2022-09-22T22:11:59.786Z,9.66
2022-09-22T22:14:34.972Z,9.59
2022-09-22T22:17:06.831Z,9.57
2022-09-22T22:19:35.990Z,9.57
2022-09-22T22:22:05.472Z,9.61
2022-09-22T22:24:40.092Z,9.73
2022-09-22T22:27:11.850Z,9.64
2022-09-22T22:29:43.268Z,9.67
2022-09-22T22:32:12.669Z,9.57
2022-09-22T22:34:41.790Z,9.61
2022-09-22T22:37:11.078Z,9.50
2022-09-22T22:39:40.770Z,9.52
2022-09-22T22:42:09.872Z,9.51
2022-09-22T22:44:38.884Z,9.42
2022-09-22T22:47:09.696Z,9.47
2022-09-22T22:49:38.940Z,9.48
2022-09-22T22:52:07.826Z,9.33
2022-09-22T22:54:37.182Z,9.45
2022-09-22T22:57:06.584Z,9.61
2022-09-22T22:59:35.512Z,9.45
2022-09-22T23:02:04.993Z,9.45
2022-09-22T23:04:35.500Z,9.49
2022-09-22T23:07:04.402Z,9.42
2022-09-22T23:09:33.752Z,9.39
2022-09-22T23:12:03.147Z,9.23
2022-09-22T23:14:32.243Z,9.36
2022-09-22T23:17:02.511Z,9.38
2022-09-22T23:19:31.627Z,9.38
2022-09-22T23:22:02.980Z,9.29
2022-09-22T23:24:32.474Z,9.26
2022-09-22T23:27:01.527Z,9.31
2022-09-22T23:29:30.897Z,9.30
2022-09-22T23:32:00.083Z,9.25
2022-09-22T23:34:29.377Z,9.26
2022-09-22T23:36:58.500Z,9.07
2022-09-22T23:39:29.349Z,9.19
2022-09-22T23:41:58.535Z,9.15
2022-09-22T23:44:28.008Z,9.20
2022-09-22T23:46:57.295Z,9.18
2022-09-22T23:49:26.634Z,9.07
2022-09-22T23:51:55.589Z,9.03
2022-09-22T23:54:25.126Z,8.97
2022-09-22T23:56:56.212Z,9.00
2022-09-22T23:59:25.535Z,9.01
